Terminal Aerodrome Forecast
Issued by NWS

Home | Current Version | Previous Version | Text Only | Print | Product List | Glossary On
Versions: 1 2 3 4 5 6 7 8 9 10 11 12 13 14 15 16 17 18 19 20 21 22 23
000
FTUS43 KDMX 240535
TAFMCW
TAF
KMCW 240535Z 2406/2506 32022G30KT P6SM BKN200 WS020/33040KT
     FM241000 33025G36KT P6SM BKN030 WS020/33040KT
     FM241500 33030G40KT P6SM BKN035 WS020/33040KT
     FM242100 33025G35KT P6SM SCT190 WS020/33035KT
     FM242300 32020G29KT P6SM SKC WS020/33030KT
     FM250100 32014G23KT P6SM SKC
     FM250400 31012G18KT P6SM SKC=

USA.gov is the U.S. government's official web portal to all federal, state and local government web resources and services.